sensor_id;sensor_type;location;lat;lon;timestamp;pressure;altitude;pressure_sealevel;temperature;humidity
73974;BME280;62336;-26.094;27.994;2023-07-08T00:02:09;85444.76;;;21.85;17.03
73974;BME280;62336;-26.094;27.994;2023-07-08T00:04:31;85442.95;;;21.92;16.94
73974;BME280;62336;-26.094;27.994;2023-07-08T00:06:56;85440.11;;;22.06;16.93
73974;BME280;62336;-26.094;27.994;2023-07-08T00:09:22;85439.80;;;21.87;16.77
73974;BME280;62336;-26.094;27.994;2023-07-08T00:11:48;85440.15;;;21.83;16.93
73974;BME280;62336;-26.094;27.994;2023-07-08T00:14:13;85436.26;;;21.24;17.16
73974;BME280;62336;-26.094;27.994;2023-07-08T00:16:39;85433.75;;;21.56;17.03
73974;BME280;62336;-26.094;27.994;2023-07-08T00:19:09;85433.06;;;21.91;17.03
73974;BME280;62336;-26.094;27.994;2023-07-08T00:21:30;85436.30;;;22.03;16.92
73974;BME280;62336;-26.094;27.994;2023-07-08T00:23:55;85438.48;;;21.49;17.43
73974;BME280;62336;-26.094;27.994;2023-07-08T00:26:25;85438.83;;;22.15;16.93
73974;BME280;62336;-26.094;27.994;2023-07-08T00:28:46;85438.99;;;22.12;16.88
73974;BME280;62336;-26.094;27.994;2023-07-08T00:31:12;85435.35;;;21.50;16.85
73974;BME280;62336;-26.094;27.994;2023-07-08T00:33:38;85434.25;;;21.99;16.68
73974;BME280;62336;-26.094;27.994;2023-07-08T00:36:09;85430.44;;;21.88;16.75
73974;BME280;62336;-26.094;27.994;2023-07-08T00:38:29;85430.32;;;21.74;16.88
73974;BME280;62336;-26.094;27.994;2023-07-08T00:40:59;85429.54;;;21.50;16.91
73974;BME280;62336;-26.094;27.994;2023-07-08T00:43:24;85431.73;;;21.66;16.90
73974;BME280;62336;-26.094;27.994;2023-07-08T00:45:48;85434.36;;;21.69;17.00
73974;BME280;62336;-26.094;27.994;2023-07-08T00:48:18;85431.64;;;21.69;16.99
73974;BME280;62336;-26.094;27.994;2023-07-08T00:50:36;85432.77;;;21.82;16.97
73974;BME280;62336;-26.094;27.994;2023-07-08T00:55:26;85429.77;;;21.99;16.99
73974;BME280;62336;-26.094;27.994;2023-07-08T00:57:52;85427.63;;;21.68;16.99
73974;BME280;62336;-26.094;27.994;2023-07-08T01:00:18;85429.32;;;21.52;16.92
73974;BME280;62336;-26.094;27.994;2023-07-08T01:02:45;85426.68;;;21.42;16.96
73974;BME280;62336;-26.094;27.994;2023-07-08T01:05:11;85427.13;;;21.88;16.83
73974;BME280;62336;-26.094;27.994;2023-07-08T01:07:34;85429.17;;;21.64;17.09
73974;BME280;62336;-26.094;27.994;2023-07-08T01:10:02;85426.42;;;21.67;17.13
73974;BME280;62336;-26.094;27.994;2023-07-08T01:12:29;85425.96;;;21.15;17.29
73974;BME280;62336;-26.094;27.994;2023-07-08T01:14:52;85416.32;;;21.76;17.15
73974;BME280;62336;-26.094;27.994;2023-07-08T01:17:17;85415.14;;;21.69;17.38
73974;BME280;62336;-26.094;27.994;2023-07-08T01:19:41;85412.62;;;21.72;16.98
73974;BME280;62336;-26.094;27.994;2023-07-08T01:22:08;85412.74;;;21.75;16.86
73974;BME280;62336;-26.094;27.994;2023-07-08T01:24:34;85409.48;;;22.26;16.52
73974;BME280;62336;-26.094;27.994;2023-07-08T01:26:58;85405.97;;;21.86;17.06
73974;BME280;62336;-26.094;27.994;2023-07-08T01:29:24;85404.63;;;22.06;16.91
73974;BME280;62336;-26.094;27.994;2023-07-08T01:31:49;85404.05;;;21.62;17.11
73974;BME280;62336;-26.094;27.994;2023-07-08T01:34:15;85406.41;;;22.40;16.37
73974;BME280;62336;-26.094;27.994;2023-07-08T01:36:49;85407.97;;;22.39;16.26
73974;BME280;62336;-26.094;27.994;2023-07-08T01:39:05;85402.83;;;22.30;16.41
73974;BME280;62336;-26.094;27.994;2023-07-08T01:41:30;85402.23;;;22.01;16.20
73974;BME280;62336;-26.094;27.994;2023-07-08T01:43:56;85398.70;;;22.18;15.97
73974;BME280;62336;-26.094;27.994;2023-07-08T01:46:24;85397.49;;;22.18;16.11
73974;BME280;62336;-26.094;27.994;2023-07-08T01:48:53;85397.16;;;22.14;16.04
73974;BME280;62336;-26.094;27.994;2023-07-08T01:51:13;85396.95;;;22.15;15.84
73974;BME280;62336;-26.094;27.994;2023-07-08T01:53:39;85393.63;;;22.38;15.76
73974;BME280;62336;-26.094;27.994;2023-07-08T01:56:04;85390.43;;;22.14;16.71
73974;BME280;62336;-26.094;27.994;2023-07-08T01:58:29;85391.58;;;21.85;16.50
73974;BME280;62336;-26.094;27.994;2023-07-08T02:00:54;85393.39;;;22.20;16.38
73974;BME280;62336;-26.094;27.994;2023-07-08T02:03:20;85392.21;;;21.55;16.88
73974;BME280;62336;-26.094;27.994;2023-07-08T02:05:45;85390.78;;;21.66;16.28
73974;BME280;62336;-26.094;27.994;2023-07-08T02:08:11;85387.25;;;21.40;16.64
73974;BME280;62336;-26.094;27.994;2023-07-08T02:10:37;85383.80;;;21.31;16.64
73974;BME280;62336;-26.094;27.994;2023-07-08T02:13:02;85385.50;;;20.90;16.73
73974;BME280;62336;-26.094;27.994;2023-07-08T02:15:27;85382.22;;;21.19;16.55
73974;BME280;62336;-26.094;27.994;2023-07-08T02:17:52;85384.90;;;20.99;16.95
73974;BME280;62336;-26.094;27.994;2023-07-08T02:20:18;85386.34;;;20.78;16.96
73974;BME280;62336;-26.094;27.994;2023-07-08T02:22:43;85385.54;;;20.70;16.98
73974;BME280;62336;-26.094;27.994;2023-07-08T02:25:08;85384.22;;;21.05;17.01
73974;BME280;62336;-26.094;27.994;2023-07-08T02:27:33;85385.46;;;20.84;16.87
73974;BME280;62336;-26.094;27.994;2023-07-08T02:29:58;85390.32;;;20.96;16.86
73974;BME280;62336;-26.094;27.994;2023-07-08T02:32:24;85390.39;;;21.03;17.13
73974;BME280;62336;-26.094;27.994;2023-07-08T02:34:49;85388.27;;;21.13;16.90
73974;BME280;62336;-26.094;27.994;2023-07-08T02:37:15;85390.94;;;21.30;16.76
73974;BME280;62336;-26.094;27.994;2023-07-08T02:39:40;85388.68;;;21.06;16.73
73974;BME280;62336;-26.094;27.994;2023-07-08T02:42:06;85387.85;;;21.28;16.70
73974;BME280;62336;-26.094;27.994;2023-07-08T02:44:31;85388.38;;;21.11;16.69
73974;BME280;62336;-26.094;27.994;2023-07-08T02:46:57;85385.63;;;21.63;16.60
73974;BME280;62336;-26.094;27.994;2023-07-08T02:49:22;85388.02;;;20.95;16.76
73974;BME280;62336;-26.094;27.994;2023-07-08T02:51:47;85385.53;;;21.06;16.94
73974;BME280;62336;-26.094;27.994;2023-07-08T02:54:13;85387.74;;;20.88;16.95
73974;BME280;62336;-26.094;27.994;2023-07-08T02:56:39;85388.47;;;20.70;17.00
73974;BME280;62336;-26.094;27.994;2023-07-08T02:59:04;85388.35;;;20.84;16.86
73974;BME280;62336;-26.094;27.994;2023-07-08T03:01:29;85389.24;;;20.68;16.90
73974;BME280;62336;-26.094;27.994;2023-07-08T03:03:55;85387.52;;;20.35;16.97
73974;BME280;62336;-26.094;27.994;2023-07-08T03:06:20;85387.31;;;20.62;17.08
73974;BME280;62336;-26.094;27.994;2023-07-08T03:08:45;85391.02;;;20.56;17.04
73974;BME280;62336;-26.094;27.994;2023-07-08T03:11:12;85395.63;;;20.94;16.96
73974;BME280;62336;-26.094;27.994;2023-07-08T03:13:36;85401.12;;;20.76;16.98
73974;BME280;62336;-26.094;27.994;2023-07-08T03:16:02;85405.34;;;21.02;17.01
73974;BME280;62336;-26.094;27.994;2023-07-08T03:18:27;85408.69;;;20.45;17.33
73974;BME280;62336;-26.094;27.994;2023-07-08T03:20:52;85402.77;;;20.72;17.10
73974;BME280;62336;-26.094;27.994;2023-07-08T03:23:18;85404.76;;;20.93;16.97
73974;BME280;62336;-26.094;27.994;2023-07-08T03:25:43;85407.55;;;21.25;17.06
73974;BME280;62336;-26.094;27.994;2023-07-08T03:28:08;85410.39;;;20.67;17.14
73974;BME280;62336;-26.094;27.994;2023-07-08T03:30:34;85409.58;;;20.43;17.10
73974;BME280;62336;-26.094;27.994;2023-07-08T03:32:59;85410.11;;;21.09;17.20
73974;BME280;62336;-26.094;27.994;2023-07-08T03:35:25;85410.13;;;20.67;17.03
73974;BME280;62336;-26.094;27.994;2023-07-08T03:37:50;85410.63;;;20.82;16.98
73974;BME280;62336;-26.094;27.994;2023-07-08T03:40:16;85408.22;;;21.06;16.86
73974;BME280;62336;-26.094;27.994;2023-07-08T03:42:40;85409.87;;;20.63;17.30
73974;BME280;62336;-26.094;27.994;2023-07-08T03:45:07;85411.97;;;20.48;17.24
73974;BME280;62336;-26.094;27.994;2023-07-08T03:47:32;85413.53;;;20.81;17.27
73974;BME280;62336;-26.094;27.994;2023-07-08T03:49:56;85411.70;;;20.64;17.13
73974;BME280;62336;-26.094;27.994;2023-07-08T03:52:22;85410.21;;;20.71;16.92
73974;BME280;62336;-26.094;27.994;2023-07-08T03:54:47;85410.56;;;20.39;17.13
73974;BME280;62336;-26.094;27.994;2023-07-08T03:57:12;85410.43;;;20.26;17.27
73974;BME280;62336;-26.094;27.994;2023-07-08T03:59:37;85412.14;;;20.64;17.26
73974;BME280;62336;-26.094;27.994;2023-07-08T04:02:03;85410.18;;;20.79;17.15
73974;BME280;62336;-26.094;27.994;2023-07-08T04:04:28;85407.09;;;20.37;17.19
73974;BME280;62336;-26.094;27.994;2023-07-08T04:06:53;85406.84;;;20.34;17.38
73974;BME280;62336;-26.094;27.994;2023-07-08T04:09:19;85409.57;;;20.14;17.23
73974;BME280;62336;-26.094;27.994;2023-07-08T04:11:45;85407.53;;;20.17;17.19
73974;BME280;62336;-26.094;27.994;2023-07-08T04:14:10;85407.00;;;20.53;17.01
73974;BME280;62336;-26.094;27.994;2023-07-08T04:16:44;85407.11;;;20.30;16.94
73974;BME280;62336;-26.094;27.994;2023-07-08T04:19:01;85410.16;;;20.66;16.73
73974;BME280;62336;-26.094;27.994;2023-07-08T04:21:26;85413.80;;;20.37;16.72
73974;BME280;62336;-26.094;27.994;2023-07-08T04:23:52;85413.37;;;20.77;16.71
73974;BME280;62336;-26.094;27.994;2023-07-08T04:26:17;85419.74;;;20.12;17.01
73974;BME280;62336;-26.094;27.994;2023-07-08T04:28:43;85419.23;;;20.67;16.63
73974;BME280;62336;-26.094;27.994;2023-07-08T04:31:08;85421.28;;;20.41;16.83
73974;BME280;62336;-26.094;27.994;2023-07-08T04:33:33;85422.89;;;20.50;16.80
73974;BME280;62336;-26.094;27.994;2023-07-08T04:35:58;85421.04;;;20.72;16.72
73974;BME280;62336;-26.094;27.994;2023-07-08T04:38:26;85422.78;;;20.97;16.85
73974;BME280;62336;-26.094;27.994;2023-07-08T04:40:49;85426.04;;;20.96;16.77
73974;BME280;62336;-26.094;27.994;2023-07-08T04:43:15;85424.55;;;20.68;17.03
73974;BME280;62336;-26.094;27.994;2023-07-08T04:45:41;85424.17;;;20.73;16.81
73974;BME280;62336;-26.094;27.994;2023-07-08T04:48:07;85425.13;;;20.92;16.85
73974;BME280;62336;-26.094;27.994;2023-07-08T04:50:30;85426.32;;;21.12;16.72
73974;BME280;62336;-26.094;27.994;2023-07-08T04:52:56;85424.47;;;21.00;16.78
73974;BME280;62336;-26.094;27.994;2023-07-08T04:55:22;85425.69;;;20.69;16.87
73974;BME280;62336;-26.094;27.994;2023-07-08T04:57:47;85426.04;;;20.81;17.01
73974;BME280;62336;-26.094;27.994;2023-07-08T05:00:16;85426.09;;;20.58;17.11
73974;BME280;62336;-26.094;27.994;2023-07-08T05:02:37;85425.41;;;21.12;17.02
73974;BME280;62336;-26.094;27.994;2023-07-08T05:05:03;85424.59;;;20.47;17.15
73974;BME280;62336;-26.094;27.994;2023-07-08T05:07:28;85427.85;;;21.00;17.20
73974;BME280;62336;-26.094;27.994;2023-07-08T05:09:54;85431.24;;;20.86;17.14
73974;BME280;62336;-26.094;27.994;2023-07-08T05:12:19;85432.23;;;20.26;17.40
73974;BME280;62336;-26.094;27.994;2023-07-08T05:14:45;85435.66;;;20.51;17.09
73974;BME280;62336;-26.094;27.994;2023-07-08T05:17:10;85436.14;;;20.71;16.88
73974;BME280;62336;-26.094;27.994;2023-07-08T05:19:35;85436.82;;;20.74;16.77
73974;BME280;62336;-26.094;27.994;2023-07-08T05:22:00;85436.97;;;21.20;16.55
73974;BME280;62336;-26.094;27.994;2023-07-08T05:24:26;85437.00;;;20.54;16.85
73974;BME280;62336;-26.094;27.994;2023-07-08T05:26:51;85438.53;;;20.44;16.84
73974;BME280;62336;-26.094;27.994;2023-07-08T05:29:16;85447.39;;;20.09;24.05
73974;BME280;62336;-26.094;27.994;2023-07-08T05:31:41;85445.93;;;19.38;20.73
73974;BME280;62336;-26.094;27.994;2023-07-08T05:34:06;85442.17;;;19.15;19.65
73974;BME280;62336;-26.094;27.994;2023-07-08T05:36:32;85443.63;;;19.80;18.93
73974;BME280;62336;-26.094;27.994;2023-07-08T05:38:58;85439.86;;;20.01;18.39
73974;BME280;62336;-26.094;27.994;2023-07-08T05:41:23;85441.95;;;19.95;18.00
73974;BME280;62336;-26.094;27.994;2023-07-08T05:43:48;85439.17;;;20.15;18.28
73974;BME280;62336;-26.094;27.994;2023-07-08T05:46:13;85442.66;;;19.93;17.80
73974;BME280;62336;-26.094;27.994;2023-07-08T05:48:40;85446.07;;;19.72;18.07
73974;BME280;62336;-26.094;27.994;2023-07-08T05:51:04;85448.85;;;19.56;18.75
73974;BME280;62336;-26.094;27.994;2023-07-08T05:53:30;85450.75;;;19.90;18.18
73974;BME280;62336;-26.094;27.994;2023-07-08T05:55:55;85454.50;;;19.62;18.53
73974;BME280;62336;-26.094;27.994;2023-07-08T05:58:20;85455.76;;;20.04;18.20
73974;BME280;62336;-26.094;27.994;2023-07-08T06:00:46;85454.47;;;20.35;18.03
73974;BME280;62336;-26.094;27.994;2023-07-08T06:03:11;85456.90;;;20.30;17.78
73974;BME280;62336;-26.094;27.994;2023-07-08T06:05:37;85454.77;;;20.69;17.76
73974;BME280;62336;-26.094;27.994;2023-07-08T06:08:02;85454.98;;;21.05;17.80
73974;BME280;62336;-26.094;27.994;2023-07-08T06:10:26;85458.21;;;20.80;17.69
73974;BME280;62336;-26.094;27.994;2023-07-08T06:12:52;85460.06;;;21.13;17.14
73974;BME280;62336;-26.094;27.994;2023-07-08T06:15:18;85463.58;;;21.84;16.73
73974;BME280;62336;-26.094;27.994;2023-07-08T06:17:43;85461.29;;;20.72;18.50
73974;BME280;62336;-26.094;27.994;2023-07-08T06:20:09;85463.87;;;21.26;17.56
73974;BME280;62336;-26.094;27.994;2023-07-08T06:22:34;85461.07;;;21.32;17.07
73974;BME280;62336;-26.094;27.994;2023-07-08T06:25:00;85464.65;;;21.44;17.15
73974;BME280;62336;-26.094;27.994;2023-07-08T06:27:25;85466.32;;;22.06;16.73
73974;BME280;62336;-26.094;27.994;2023-07-08T06:29:50;85471.24;;;21.69;16.70
73974;BME280;62336;-26.094;27.994;2023-07-08T06:32:16;85469.85;;;21.95;16.53
73974;BME280;62336;-26.094;27.994;2023-07-08T06:34:41;85474.05;;;22.24;16.76
73974;BME280;62336;-26.094;27.994;2023-07-08T06:37:08;85471.05;;;22.50;16.20
73974;BME280;62336;-26.094;27.994;2023-07-08T06:39:32;85471.11;;;22.34;16.05
73974;BME280;62336;-26.094;27.994;2023-07-08T06:41:58;85477.18;;;22.69;16.00
73974;BME280;62336;-26.094;27.994;2023-07-08T06:44:23;85477.92;;;23.47;15.43
73974;BME280;62336;-26.094;27.994;2023-07-08T06:46:48;85480.78;;;23.12;15.53
73974;BME280;62336;-26.094;27.994;2023-07-08T06:49:13;85473.09;;;23.12;15.53
73974;BME280;62336;-26.094;27.994;2023-07-08T06:51:39;85475.62;;;23.06;15.53
73974;BME280;62336;-26.094;27.994;2023-07-08T06:54:04;85477.52;;;23.50;15.42
73974;BME280;62336;-26.094;27.994;2023-07-08T06:56:29;85478.02;;;23.39;15.52
73974;BME280;62336;-26.094;27.994;2023-07-08T06:58:55;85480.87;;;23.69;15.33
73974;BME280;62336;-26.094;27.994;2023-07-08T07:01:20;85477.25;;;23.46;15.38
73974;BME280;62336;-26.094;27.994;2023-07-08T07:03:46;85481.13;;;23.89;15.22
73974;BME280;62336;-26.094;27.994;2023-07-08T07:06:11;85484.30;;;24.11;15.20
73974;BME280;62336;-26.094;27.994;2023-07-08T07:08:36;85483.47;;;24.50;14.85
73974;BME280;62336;-26.094;27.994;2023-07-08T07:11:01;85483.29;;;24.51;14.96
73974;BME280;62336;-26.094;27.994;2023-07-08T07:13:27;85481.26;;;24.72;14.95
73974;BME280;62336;-26.094;27.994;2023-07-08T07:15:52;85483.14;;;24.74;15.17
73974;BME280;62336;-26.094;27.994;2023-07-08T07:18:18;85480.13;;;24.90;14.74
73974;BME280;62336;-26.094;27.994;2023-07-08T07:20:48;85481.14;;;25.44;14.53
73974;BME280;62336;-26.094;27.994;2023-07-08T07:23:08;85477.85;;;25.46;14.39
73974;BME280;62336;-26.094;27.994;2023-07-08T07:25:35;85477.74;;;25.41;14.84
73974;BME280;62336;-26.094;27.994;2023-07-08T07:27:59;85482.94;;;25.27;14.81
73974;BME280;62336;-26.094;27.994;2023-07-08T07:30:24;85480.64;;;25.42;14.62
73974;BME280;62336;-26.094;27.994;2023-07-08T07:32:49;85485.61;;;25.32;14.38
73974;BME280;62336;-26.094;27.994;2023-07-08T07:35:15;85486.50;;;25.91;14.24
73974;BME280;62336;-26.094;27.994;2023-07-08T07:37:41;85486.41;;;25.78;14.47
73974;BME280;62336;-26.094;27.994;2023-07-08T07:40:07;85487.63;;;25.88;14.53
73974;BME280;62336;-26.094;27.994;2023-07-08T07:42:31;85489.24;;;25.60;14.20
73974;BME280;62336;-26.094;27.994;2023-07-08T07:44:56;85484.35;;;26.22;14.15
73974;BME280;62336;-26.094;27.994;2023-07-08T07:47:22;85481.81;;;26.31;14.23
73974;BME280;62336;-26.094;27.994;2023-07-08T07:49:47;85479.81;;;25.97;14.20
73974;BME280;62336;-26.094;27.994;2023-07-08T07:52:13;85474.23;;;26.33;14.25
73974;BME280;62336;-26.094;27.994;2023-07-08T07:54:38;85470.21;;;26.64;13.92
73974;BME280;62336;-26.094;27.994;2023-07-08T07:57:04;85472.74;;;27.22;13.78
73974;BME280;62336;-26.094;27.994;2023-07-08T07:59:29;85475.69;;;26.46;14.34
73974;BME280;62336;-26.094;27.994;2023-07-08T08:01:54;85468.70;;;26.68;13.93
73974;BME280;62336;-26.094;27.994;2023-07-08T08:04:19;85466.35;;;26.72;13.76
73974;BME280;62336;-26.094;27.994;2023-07-08T08:21:18;85452.70;;;27.68;12.39
73974;BME280;62336;-26.094;27.994;2023-07-08T08:23:43;85451.30;;;27.35;12.51
73974;BME280;62336;-26.094;27.994;2023-07-08T08:26:08;85443.99;;;28.04;11.67
73974;BME280;62336;-26.094;27.994;2023-07-08T08:28:33;85451.74;;;27.63;12.28
73974;BME280;62336;-26.094;27.994;2023-07-08T08:30:58;85443.08;;;27.83;11.73
73974;BME280;62336;-26.094;27.994;2023-07-08T08:33:24;85448.58;;;27.52;12.24
73974;BME280;62336;-26.094;27.994;2023-07-08T08:35:49;85451.08;;;27.44;11.91
73974;BME280;62336;-26.094;27.994;2023-07-08T08:38:14;85441.26;;;27.30;11.56
73974;BME280;62336;-26.094;27.994;2023-07-08T08:40:41;85438.69;;;27.59;11.46
73974;BME280;62336;-26.094;27.994;2023-07-08T08:43:09;85432.32;;;27.25;11.64
73974;BME280;62336;-26.094;27.994;2023-07-08T08:45:36;85425.55;;;27.70;11.11
73974;BME280;62336;-26.094;27.994;2023-07-08T08:48:00;85418.30;;;27.84;12.12
73974;BME280;62336;-26.094;27.994;2023-07-08T08:50:29;85417.28;;;27.88;12.03
73974;BME280;62336;-26.094;27.994;2023-07-08T08:52:47;85413.94;;;28.42;11.34
73974;BME280;62336;-26.094;27.994;2023-07-08T08:55:13;85407.33;;;28.25;11.34
73974;BME280;62336;-26.094;27.994;2023-07-08T08:57:41;85405.14;;;28.46;11.01
73974;BME280;62336;-26.094;27.994;2023-07-08T09:00:03;85404.62;;;27.52;11.90
73974;BME280;62336;-26.094;27.994;2023-07-08T09:02:34;85396.41;;;28.13;11.59
73974;BME280;62336;-26.094;27.994;2023-07-08T09:04:54;85397.30;;;28.15;12.08
73974;BME280;62336;-26.094;27.994;2023-07-08T09:07:21;85392.20;;;28.44;11.49
73974;BME280;62336;-26.094;27.994;2023-07-08T09:09:51;85384.89;;;28.85;11.24
73974;BME280;62336;-26.094;27.994;2023-07-08T09:12:16;85378.42;;;28.60;11.36
73974;BME280;62336;-26.094;27.994;2023-07-08T09:14:37;85377.28;;;28.75;11.29
73974;BME280;62336;-26.094;27.994;2023-07-08T09:17:15;85377.69;;;28.69;11.26
73974;BME280;62336;-26.094;27.994;2023-07-08T09:19:32;85375.31;;;29.21;10.97
73974;BME280;62336;-26.094;27.994;2023-07-08T09:21:59;85366.39;;;28.61;10.97
73974;BME280;62336;-26.094;27.994;2023-07-08T09:24:26;85361.15;;;29.19;10.75
73974;BME280;62336;-26.094;27.994;2023-07-08T09:26:46;85351.30;;;28.79;11.00
73974;BME280;62336;-26.094;27.994;2023-07-08T09:29:10;85348.48;;;29.10;11.34
73974;BME280;62336;-26.094;27.994;2023-07-08T09:31:38;85349.62;;;28.95;10.98
73974;BME280;62336;-26.094;27.994;2023-07-08T09:34:08;85335.90;;;29.29;11.18
73974;BME280;62336;-26.094;27.994;2023-07-08T09:36:26;85331.40;;;29.70;11.60
73974;BME280;62336;-26.094;27.994;2023-07-08T09:38:53;85323.86;;;29.53;10.72
73974;BME280;62336;-26.094;27.994;2023-07-08T09:43:43;85322.91;;;30.07;11.03
73974;BME280;62336;-26.094;27.994;2023-07-08T09:46:11;85315.24;;;30.08;10.60
73974;BME280;62336;-26.094;27.994;2023-07-08T09:48:35;85310.43;;;30.17;10.40
73974;BME280;62336;-26.094;27.994;2023-07-08T09:50:58;85311.83;;;30.21;10.73
73974;BME280;62336;-26.094;27.994;2023-07-08T09:53:23;85300.39;;;29.40;10.71
73974;BME280;62336;-26.094;27.994;2023-07-08T09:55:48;85297.70;;;30.00;10.99
73974;BME280;62336;-26.094;27.994;2023-07-08T09:58:17;85288.06;;;30.22;10.78
73974;BME280;62336;-26.094;27.994;2023-07-08T10:00:41;85292.64;;;30.27;10.94
73974;BME280;62336;-26.094;27.994;2023-07-08T10:03:08;85284.55;;;30.32;10.91
73974;BME280;62336;-26.094;27.994;2023-07-08T10:05:31;85280.75;;;30.14;10.53
73974;BME280;62336;-26.094;27.994;2023-07-08T10:07:55;85274.64;;;30.08;10.48
73974;BME280;62336;-26.094;27.994;2023-07-08T10:10:24;85267.74;;;30.58;10.60
73974;BME280;62336;-26.094;27.994;2023-07-08T10:12:52;85267.39;;;30.13;10.79
73974;BME280;62336;-26.094;27.994;2023-07-08T10:15:15;85262.59;;;30.31;10.70
73974;BME280;62336;-26.094;27.994;2023-07-08T10:17:35;85253.05;;;30.26;10.46
73974;BME280;62336;-26.094;27.994;2023-07-08T10:19:59;85241.49;;;29.98;10.47
73974;BME280;62336;-26.094;27.994;2023-07-08T10:22:34;85240.81;;;30.30;10.54
73974;BME280;62336;-26.094;27.994;2023-07-08T10:25:00;85234.93;;;29.69;10.97
73974;BME280;62336;-26.094;27.994;2023-07-08T10:27:22;85227.81;;;29.66;10.69
73974;BME280;62336;-26.094;27.994;2023-07-08T10:29:45;85215.41;;;30.33;10.27
73974;BME280;62336;-26.094;27.994;2023-07-08T10:32:12;85217.15;;;30.31;10.35
73974;BME280;62336;-26.094;27.994;2023-07-08T10:34:39;85212.30;;;30.16;10.72
73974;BME280;62336;-26.094;27.994;2023-07-08T10:37:03;85205.25;;;30.62;10.25
73974;BME280;62336;-26.094;27.994;2023-07-08T10:39:31;85208.43;;;30.27;9.99
73974;BME280;62336;-26.094;27.994;2023-07-08T10:41:53;85204.07;;;30.57;10.15
73974;BME280;62336;-26.094;27.994;2023-07-08T10:44:15;85196.48;;;30.78;10.46
73974;BME280;62336;-26.094;27.994;2023-07-08T10:46:44;85192.78;;;30.64;10.18
73974;BME280;62336;-26.094;27.994;2023-07-08T10:49:11;85185.26;;;31.13;10.02
73974;BME280;62336;-26.094;27.994;2023-07-08T10:51:31;85180.71;;;31.60;9.65
73974;BME280;62336;-26.094;27.994;2023-07-08T10:54:05;85173.82;;;31.27;10.04
73974;BME280;62336;-26.094;27.994;2023-07-08T10:56:22;85165.79;;;30.90;10.19
73974;BME280;62336;-26.094;27.994;2023-07-08T11:01:19;85155.37;;;31.16;9.68
73974;BME280;62336;-26.094;27.994;2023-07-08T11:03:50;85146.78;;;30.85;10.12
73974;BME280;62336;-26.094;27.994;2023-07-08T11:06:00;85149.65;;;31.44;9.67
73974;BME280;62336;-26.094;27.994;2023-07-08T11:08:25;85140.50;;;30.89;9.63
73974;BME280;62336;-26.094;27.994;2023-07-08T11:10:52;85133.73;;;31.20;9.62
73974;BME280;62336;-26.094;27.994;2023-07-08T11:13:17;85141.14;;;31.51;9.92
73974;BME280;62336;-26.094;27.994;2023-07-08T11:15:45;85133.39;;;30.83;9.51
73974;BME280;62336;-26.094;27.994;2023-07-08T11:18:08;85125.92;;;31.20;9.22
73974;BME280;62336;-26.094;27.994;2023-07-08T11:20:36;85121.95;;;31.08;10.17
73974;BME280;62336;-26.094;27.994;2023-07-08T11:23:00;85122.04;;;31.48;9.39
73974;BME280;62336;-26.094;27.994;2023-07-08T11:25:21;85114.09;;;30.87;10.20
73974;BME280;62336;-26.094;27.994;2023-07-08T11:27:47;85111.15;;;31.28;9.41
73974;BME280;62336;-26.094;27.994;2023-07-08T11:30:14;85106.26;;;31.74;9.34
73974;BME280;62336;-26.094;27.994;2023-07-08T11:32:36;85100.04;;;31.20;9.44
73974;BME280;62336;-26.094;27.994;2023-07-08T11:35:04;85100.46;;;31.53;9.69
73974;BME280;62336;-26.094;27.994;2023-07-08T11:37:27;85088.86;;;31.58;9.12
73974;BME280;62336;-26.094;27.994;2023-07-08T11:39:57;85084.52;;;31.74;9.48
73974;BME280;62336;-26.094;27.994;2023-07-08T11:42:20;85084.15;;;31.70;9.17
73974;BME280;62336;-26.094;27.994;2023-07-08T11:44:43;85084.71;;;31.51;9.20
73974;BME280;62336;-26.094;27.994;2023-07-08T11:47:13;85083.10;;;31.58;9.11
73974;BME280;62336;-26.094;27.994;2023-07-08T11:49:32;85078.70;;;31.77;9.06
73974;BME280;62336;-26.094;27.994;2023-07-08T11:51:58;85071.78;;;31.73;9.21
73974;BME280;62336;-26.094;27.994;2023-07-08T11:54:28;85076.90;;;31.79;9.15
73974;BME280;62336;-26.094;27.994;2023-07-08T11:56:50;85071.77;;;31.88;9.11
73974;BME280;62336;-26.094;27.994;2023-07-08T11:59:18;85071.06;;;31.88;8.86
73974;BME280;62336;-26.094;27.994;2023-07-08T12:01:40;85060.80;;;31.58;9.30
73974;BME280;62336;-26.094;27.994;2023-07-08T12:06:42;85054.07;;;31.92;9.09
73974;BME280;62336;-26.094;27.994;2023-07-08T12:08:55;85053.12;;;31.41;9.92
73974;BME280;62336;-26.094;27.994;2023-07-08T12:11:19;85055.06;;;31.57;9.52
73974;BME280;62336;-26.094;27.994;2023-07-08T12:13:45;85047.03;;;31.66;9.65
73974;BME280;62336;-26.094;27.994;2023-07-08T12:16:11;85042.13;;;31.50;9.68
73974;BME280;62336;-26.094;27.994;2023-07-08T12:18:38;85041.13;;;31.92;9.47
73974;BME280;62336;-26.094;27.994;2023-07-08T12:21:03;85036.36;;;31.54;10.12
73974;BME280;62336;-26.094;27.994;2023-07-08T12:23:29;85036.04;;;31.80;9.20
73974;BME280;62336;-26.094;27.994;2023-07-08T12:25:54;85039.63;;;31.75;9.07
73974;BME280;62336;-26.094;27.994;2023-07-08T12:28:19;85032.76;;;31.91;9.49
73974;BME280;62336;-26.094;27.994;2023-07-08T12:30:45;85025.85;;;31.63;9.04
73974;BME280;62336;-26.094;27.994;2023-07-08T12:33:22;85023.09;;;31.46;9.12
73974;BME280;62336;-26.094;27.994;2023-07-08T12:35:35;85027.18;;;31.88;9.47
73974;BME280;62336;-26.094;27.994;2023-07-08T12:38:02;85024.23;;;31.66;9.84
73974;BME280;62336;-26.094;27.994;2023-07-08T12:40:26;85019.37;;;31.34;9.27
73974;BME280;62336;-26.094;27.994;2023-07-08T12:42:50;85009.08;;;31.64;8.97
73974;BME280;62336;-26.094;27.994;2023-07-08T12:45:20;85011.68;;;32.07;9.65
73974;BME280;62336;-26.094;27.994;2023-07-08T12:47:42;85013.01;;;31.59;9.32
73974;BME280;62336;-26.094;27.994;2023-07-08T12:50:09;85009.18;;;31.64;9.28
73974;BME280;62336;-26.094;27.994;2023-07-08T12:52:32;85006.34;;;31.76;9.47
73974;BME280;62336;-26.094;27.994;2023-07-08T12:54:57;85006.51;;;31.93;9.30